createdAt,value
2018-12-18T00:01:38.110Z,-1.60
2018-12-18T00:04:08.275Z,-1.60
2018-12-18T00:06:38.370Z,-1.80
2018-12-18T00:09:09.300Z,-1.90
2018-12-18T00:11:39.425Z,-2.10
2018-12-18T00:14:09.830Z,-2.10
2018-12-18T00:16:40.315Z,-2.10
2018-12-18T00:19:10.401Z,-1.90
2018-12-18T00:21:40.595Z,-1.80
2018-12-18T00:24:10.724Z,-1.70
2018-12-18T00:26:40.730Z,-1.60
2018-12-18T00:29:10.729Z,-1.60
2018-12-18T00:31:40.580Z,-1.60
2018-12-18T00:34:10.551Z,-1.50
2018-12-18T00:36:40.895Z,-1.40
2018-12-18T00:39:14.870Z,-1.30
2018-12-18T00:41:45.010Z,-1.30
2018-12-18T00:44:15.002Z,-1.20
2018-12-18T00:46:45.000Z,-1.00
2018-12-18T00:49:15.010Z,-0.90
2018-12-18T00:51:45.040Z,-0.80
2018-12-18T00:54:15.025Z,-0.70
2018-12-18T00:56:44.850Z,-0.70
2018-12-18T00:59:15.220Z,-0.60
2018-12-18T01:01:49.515Z,-0.50
2018-12-18T01:04:19.396Z,-0.40
2018-12-18T01:06:49.840Z,-0.20
2018-12-18T01:09:20.030Z,-0.10
2018-12-18T01:11:50.045Z,0.10
2018-12-18T01:14:20.350Z,0.10
2018-12-18T01:16:50.350Z,0.00
2018-12-18T01:19:20.735Z,-0.30
2018-12-18T01:21:51.195Z,-0.40
2018-12-18T01:24:21.603Z,-0.30
2018-12-18T01:26:52.010Z,-0.30
2018-12-18T01:29:22.185Z,-0.30
2018-12-18T01:31:52.180Z,-0.30
2018-12-18T01:34:22.661Z,-0.40
2018-12-18T01:36:52.785Z,-0.40
2018-12-18T01:39:23.612Z,-0.60
2018-12-18T01:41:53.611Z,-0.60
2018-12-18T01:44:23.770Z,-0.70
2018-12-18T01:46:54.131Z,-0.60
2018-12-18T01:49:24.971Z,-0.50
2018-12-18T01:51:55.250Z,-0.50
2018-12-18T01:54:25.511Z,-0.60
2018-12-18T01:56:55.326Z,-0.60
2018-12-18T01:59:25.696Z,-0.70
2018-12-18T02:01:55.941Z,-0.60
2018-12-18T02:04:25.926Z,-0.60
2018-12-18T02:06:56.141Z,-0.60
2018-12-18T02:09:26.211Z,-0.60
2018-12-18T02:11:56.073Z,-0.60
2018-12-18T02:14:25.937Z,-0.50
2018-12-18T02:16:56.071Z,-0.50
2018-12-18T02:19:26.381Z,-0.40
2018-12-18T02:21:56.531Z,-0.50
2018-12-18T02:24:26.506Z,-0.50
2018-12-18T02:26:56.292Z,-0.50
2018-12-18T02:29:26.351Z,-0.50
2018-12-18T02:31:56.575Z,-0.50
2018-12-18T02:34:26.576Z,-0.50
2018-12-18T02:36:56.326Z,-0.60
2018-12-18T02:39:26.071Z,-0.40
2018-12-18T02:41:56.227Z,-0.40
2018-12-18T02:44:29.481Z,-0.60
2018-12-18T02:46:59.412Z,-0.60
2018-12-18T02:49:29.468Z,-0.50
2018-12-18T02:51:59.186Z,-0.50
2018-12-18T02:54:29.191Z,-0.40
2018-12-18T02:56:59.167Z,-0.30
2018-12-18T02:59:29.236Z,-0.30
2018-12-18T03:01:59.416Z,-0.30
2018-12-18T03:04:29.181Z,-0.20
2018-12-18T03:06:59.171Z,-0.30
2018-12-18T03:09:29.206Z,-0.20
2018-12-18T03:11:59.181Z,-0.30
2018-12-18T03:14:29.101Z,-0.30
2018-12-18T03:16:58.834Z,-0.30
2018-12-18T03:19:28.881Z,-0.40
2018-12-18T03:21:58.946Z,-0.60
2018-12-18T03:24:29.006Z,-0.60
2018-12-18T03:26:58.886Z,-0.70
2018-12-18T03:29:28.626Z,-0.80
2018-12-18T03:32:02.477Z,-0.60
2018-12-18T03:34:32.559Z,-0.70
2018-12-18T03:37:02.460Z,-0.60
2018-12-18T03:39:32.471Z,-0.60
2018-12-18T03:42:02.251Z,-0.70
2018-12-18T03:44:32.312Z,-0.70
2018-12-18T03:47:02.087Z,-0.60
2018-12-18T03:49:32.171Z,-0.60
2018-12-18T03:52:01.961Z,-0.60
2018-12-18T03:54:32.001Z,-0.60
2018-12-18T03:57:01.880Z,-0.70
2018-12-18T03:59:31.772Z,-0.60
2018-12-18T04:02:01.721Z,-0.60
2018-12-18T04:04:35.584Z,-0.60
2018-12-18T04:07:03.936Z,-0.70
2018-12-18T04:09:34.231Z,-0.80
2018-12-18T04:12:12.461Z,-0.80
2018-12-18T04:14:42.326Z,-0.70
2018-12-18T04:17:12.236Z,-0.70
2018-12-18T04:19:42.387Z,-0.70
2018-12-18T04:22:12.707Z,-0.60
2018-12-18T04:24:42.556Z,-0.60
2018-12-18T04:27:12.587Z,-0.70
2018-12-18T04:29:42.698Z,-0.70
2018-12-18T04:32:12.848Z,-0.70
2018-12-18T04:34:43.321Z,-0.70
2018-12-18T04:37:13.191Z,-0.70
2018-12-18T04:39:43.277Z,-0.70
2018-12-18T04:42:13.347Z,-0.70
2018-12-18T04:44:43.417Z,-0.60
2018-12-18T04:47:13.528Z,-0.60
2018-12-18T04:49:43.383Z,-0.60
2018-12-18T04:52:13.437Z,-0.70
2018-12-18T04:54:43.566Z,-0.80
2018-12-18T04:57:13.312Z,-0.70
2018-12-18T04:59:43.327Z,-0.70
2018-12-18T05:02:13.212Z,-0.60
2018-12-18T05:04:49.966Z,-0.60
2018-12-18T05:07:15.258Z,-0.50
2018-12-18T05:09:45.307Z,-0.50
2018-12-18T05:12:15.336Z,-0.50
2018-12-18T05:14:45.204Z,-0.70
2018-12-18T05:17:15.417Z,-0.70
2018-12-18T05:19:45.678Z,-0.70
2018-12-18T05:22:15.782Z,-0.80
2018-12-18T05:24:45.807Z,-0.80
2018-12-18T05:27:15.601Z,-0.80
